createdAt,value
2018-07-04T00:01:17.355Z,2.83
2018-07-04T00:04:11.373Z,3.13
2018-07-04T00:07:05.694Z,2.73
2018-07-04T00:09:59.718Z,2.50
2018-07-04T00:12:53.917Z,3.03
2018-07-04T00:15:48.210Z,3.27
2018-07-04T00:18:42.392Z,2.63
2018-07-04T00:21:36.429Z,2.20
2018-07-04T00:24:31.681Z,2.30
2018-07-04T00:27:25.757Z,1.97
2018-07-04T00:30:19.656Z,2.00
2018-07-04T00:33:13.759Z,1.93
2018-07-04T00:36:07.828Z,1.87
2018-07-04T00:39:01.774Z,2.10
2018-07-04T00:41:55.790Z,1.90
2018-07-04T00:44:49.945Z,2.17
2018-07-04T00:47:43.802Z,1.70
2018-07-04T00:50:38.164Z,1.90
2018-07-04T00:53:32.233Z,1.90
2018-07-04T00:56:20.496Z,2.00
2018-07-04T00:59:14.467Z,2.00
2018-07-04T01:02:08.590Z,1.80
2018-07-04T01:05:02.358Z,2.17
2018-07-04T01:07:56.348Z,1.80
2018-07-04T01:10:50.797Z,2.30
2018-07-04T01:13:45.064Z,1.97
2018-07-04T01:16:39.370Z,2.03
2018-07-04T01:19:33.404Z,2.23
2018-07-04T01:22:27.529Z,1.80
2018-07-04T01:25:21.590Z,2.13
2018-07-04T01:28:15.675Z,1.97
2018-07-04T01:31:10.077Z,2.30
2018-07-04T01:34:04.222Z,2.20
2018-07-04T01:36:58.455Z,2.40
2018-07-04T01:39:52.382Z,2.27
2018-07-04T01:42:46.657Z,1.97
2018-07-04T01:45:40.487Z,2.27
2018-07-04T01:48:34.580Z,2.80
2018-07-04T01:51:28.699Z,2.10
2018-07-04T01:54:22.750Z,2.10
2018-07-04T01:57:17.215Z,2.40
2018-07-04T02:00:11.217Z,2.47
2018-07-04T02:03:05.261Z,2.50
2018-07-04T02:05:59.325Z,2.40
2018-07-04T02:08:53.426Z,2.63
2018-07-04T02:11:47.651Z,2.63
2018-07-04T02:14:41.789Z,2.80
2018-07-04T02:17:35.797Z,2.87
2018-07-04T02:20:30.206Z,2.73
2018-07-04T02:23:24.374Z,2.50
2018-07-04T02:26:12.688Z,2.50
2018-07-04T02:29:06.730Z,2.33
2018-07-04T02:32:00.799Z,3.00
2018-07-04T02:34:59.982Z,3.20
2018-07-04T02:37:54.010Z,2.87
2018-07-04T02:40:48.161Z,3.30
2018-07-04T02:43:42.343Z,2.60
2018-07-04T02:46:40.575Z,2.73
2018-07-04T02:49:34.809Z,2.80
2018-07-04T02:52:28.951Z,2.73
2018-07-04T02:55:23.056Z,2.87
2018-07-04T02:58:17.320Z,2.90
2018-07-04T03:01:05.589Z,3.13
2018-07-04T03:03:59.417Z,3.00
2018-07-04T03:06:53.917Z,3.17
2018-07-04T03:09:48.130Z,2.73
2018-07-04T03:12:42.467Z,3.43
2018-07-04T03:15:36.650Z,2.93
2018-07-04T03:18:30.759Z,2.97
2018-07-04T03:21:24.772Z,3.20
2018-07-04T03:24:18.900Z,2.80
2018-07-04T03:27:12.854Z,2.57
2018-07-04T03:30:07.126Z,3.27
2018-07-04T03:33:01.480Z,3.70
2018-07-04T03:35:55.670Z,3.30
2018-07-04T03:38:49.944Z,3.23
2018-07-04T03:41:44.109Z,2.97
2018-07-04T03:44:38.369Z,3.27
2018-07-04T03:47:32.681Z,3.10
2018-07-04T03:50:26.818Z,3.40
2018-07-04T03:53:14.814Z,2.90
2018-07-04T03:56:08.781Z,3.60
2018-07-04T03:59:02.891Z,2.87
2018-07-04T04:01:57.039Z,3.50
2018-07-04T04:04:50.941Z,3.20
2018-07-04T04:07:45.113Z,2.87
2018-07-04T04:10:39.394Z,3.00
2018-07-04T04:13:33.833Z,3.10
2018-07-04T04:16:27.881Z,2.67
2018-07-04T04:19:27.342Z,3.43
2018-07-04T04:22:21.341Z,3.67
2018-07-04T04:25:15.070Z,3.20
2018-07-04T04:28:08.982Z,3.23
2018-07-04T04:31:03.242Z,3.37
2018-07-04T04:33:57.565Z,3.13
2018-07-04T04:36:52.063Z,3.43
2018-07-04T04:39:46.325Z,3.47
2018-07-04T04:42:40.561Z,3.40
2018-07-04T04:45:34.461Z,3.60
2018-07-04T04:48:28.629Z,3.77
2018-07-04T04:51:22.681Z,3.57
2018-07-04T04:54:10.613Z,4.03
2018-07-04T04:57:04.686Z,4.20
2018-07-04T04:59:58.924Z,3.77
2018-07-04T05:02:53.095Z,3.60
2018-07-04T05:05:47.016Z,3.50
2018-07-04T05:08:41.279Z,3.80
2018-07-04T05:11:35.425Z,4.60
2018-07-04T05:14:29.497Z,3.70
2018-07-04T05:17:23.648Z,4.00
2018-07-04T05:20:17.693Z,4.20
2018-07-04T05:23:11.571Z,4.43
2018-07-04T05:26:05.579Z,3.90
2018-07-04T05:28:59.775Z,4.60
2018-07-04T05:31:53.776Z,4.23
2018-07-04T05:34:47.969Z,4.37
2018-07-04T05:37:42.024Z,4.33
2018-07-04T05:40:36.324Z,4.17
2018-07-04T05:43:31.724Z,5.07
2018-07-04T05:46:31.320Z,4.70
2018-07-04T05:49:25.336Z,4.50
2018-07-04T05:52:19.573Z,4.73
2018-07-04T05:55:08.023Z,4.67
2018-07-04T05:58:02.153Z,4.67
2018-07-04T06:00:56.589Z,4.87
2018-07-04T06:03:50.705Z,4.43
2018-07-04T06:06:45.012Z,4.23
2018-07-04T06:09:33.536Z,5.27
2018-07-04T06:12:21.437Z,4.63
2018-07-04T06:15:15.434Z,4.80
2018-07-04T06:18:09.603Z,5.17
2018-07-04T06:21:03.709Z,4.53
2018-07-04T06:23:57.740Z,5.03
2018-07-04T06:26:51.857Z,4.63
2018-07-04T06:29:45.972Z,5.00
2018-07-04T06:32:40.111Z,4.93
2018-07-04T06:35:34.205Z,4.57
2018-07-04T06:38:09.872Z,5.20
2018-07-04T06:40:39.247Z,5.70
2018-07-04T06:43:08.657Z,5.10
2018-07-04T06:45:38.304Z,4.90
2018-07-04T06:48:07.550Z,5.43
2018-07-04T06:50:37.064Z,4.90
2018-07-04T06:53:06.584Z,4.97
2018-07-04T06:55:36.214Z,5.00
2018-07-04T06:58:05.465Z,4.77
2018-07-04T07:00:34.852Z,4.80
2018-07-04T07:03:22.933Z,4.80
2018-07-04T07:06:17.764Z,5.37
2018-07-04T07:09:12.580Z,4.20
2018-07-04T07:12:06.829Z,5.53
2018-07-04T07:15:01.118Z,5.27
2018-07-04T07:17:55.357Z,5.40
2018-07-04T07:20:49.447Z,4.80
2018-07-04T07:23:37.527Z,4.97
2018-07-04T07:26:31.481Z,6.13
2018-07-04T07:29:26.004Z,6.47
2018-07-04T07:32:20.524Z,5.87
2018-07-04T07:35:14.939Z,5.30
2018-07-04T07:38:09.185Z,4.40
2018-07-04T07:41:03.352Z,4.80
2018-07-04T07:43:57.470Z,4.43
2018-07-04T07:46:45.830Z,3.87
2018-07-04T07:49:40.225Z,4.23
2018-07-04T07:52:34.723Z,4.80
2018-07-04T07:55:28.987Z,3.03
2018-07-04T07:58:23.173Z,2.70
2018-07-04T08:01:17.149Z,2.60
2018-07-04T08:04:11.566Z,2.20
2018-07-04T08:07:05.914Z,2.20
2018-07-04T08:10:00.054Z,2.60
2018-07-04T08:12:54.110Z,2.20
2018-07-04T08:15:48.385Z,2.97
2018-07-04T08:18:43.038Z,2.47
2018-07-04T08:25:01.784Z,2.30
2018-07-04T08:27:56.222Z,2.23
2018-07-04T08:30:50.198Z,2.33
2018-07-04T08:33:44.577Z,1.87
2018-07-04T08:36:39.334Z,1.95
2018-07-04T08:39:27.419Z,2.30
2018-07-04T08:42:15.526Z,2.07
2018-07-04T08:45:10.112Z,3.00
2018-07-04T08:47:58.748Z,3.35
2018-07-04T08:50:53.613Z,2.67
2018-07-04T08:53:48.495Z,2.35
2018-07-04T08:57:40.262Z,2.42
2018-07-04T09:00:34.857Z,2.33
2018-07-04T09:03:30.917Z,1.85
2018-07-04T09:06:25.845Z,2.22
2018-07-04T09:09:14.647Z,1.60
2018-07-04T09:12:09.370Z,1.32
2018-07-04T09:14:58.228Z,1.45
2018-07-04T09:17:53.111Z,1.60
2018-07-04T09:20:47.958Z,1.30
2018-07-04T09:27:00.849Z,1.77
2018-07-04T09:29:55.396Z,1.27
2018-07-04T09:32:49.974Z,1.60
2018-07-04T09:35:45.356Z,1.70
2018-07-04T09:38:40.204Z,2.02
2018-07-04T09:41:34.760Z,1.62
2018-07-04T09:44:29.153Z,1.72
2018-07-04T09:47:23.620Z,2.30
2018-07-04T09:50:18.183Z,2.02
2018-07-04T09:53:12.768Z,1.90
2018-07-04T09:56:07.410Z,1.90
2018-07-04T09:59:01.863Z,1.87
2018-07-04T10:01:56.494Z,1.90
2018-07-04T10:04:51.237Z,2.10
2018-07-04T10:07:45.635Z,2.50
2018-07-04T10:10:39.982Z,2.90
2018-07-04T10:13:34.490Z,2.55
2018-07-04T10:16:29.041Z,2.55
2018-07-04T10:19:23.325Z,2.55
2018-07-04T10:22:17.780Z,2.35
2018-07-04T10:25:12.147Z,2.30
2018-07-04T10:28:07.140Z,2.30
2018-07-04T10:31:01.519Z,2.20
2018-07-04T10:33:56.059Z,2.60
2018-07-04T10:36:50.447Z,2.20
2018-07-04T10:39:44.843Z,2.35
2018-07-04T10:42:40.259Z,2.22
2018-07-04T10:45:35.202Z,2.60
2018-07-04T10:48:29.440Z,2.33
2018-07-04T10:51:23.763Z,2.12
2018-07-04T10:54:18.176Z,2.47
2018-07-04T10:57:06.689Z,2.50
2018-07-04T11:00:01.074Z,2.12
2018-07-04T11:02:55.681Z,3.35
2018-07-04T11:05:50.067Z,2.90
2018-07-04T11:08:44.405Z,2.37
2018-07-04T11:11:38.777Z,2.12
2018-07-04T11:14:34.169Z,2.25
2018-07-04T11:17:29.377Z,1.90
2018-07-04T11:20:23.780Z,2.20
2018-07-04T11:23:12.399Z,2.47
2018-07-04T11:26:06.888Z,1.98
2018-07-04T11:29:01.456Z,2.25
2018-07-04T11:31:56.024Z,2.42
2018-07-04T11:34:50.467Z,1.82
2018-07-04T11:37:45.012Z,2.00
2018-07-04T11:40:39.245Z,1.80
2018-07-04T11:43:33.932Z,1.65
2018-07-04T11:46:10.295Z,1.80
2018-07-04T11:48:40.242Z,1.77
2018-07-04T11:51:10.293Z,1.92
2018-07-04T11:53:40.308Z,2.10
2018-07-04T11:56:10.253Z,1.70
2018-07-04T11:58:40.273Z,1.90
2018-07-04T12:01:10.426Z,1.90
2018-07-04T12:03:59.173Z,2.10
2018-07-04T12:06:53.753Z,2.30
2018-07-04T12:09:29.936Z,2.00
2018-07-04T12:12:00.465Z,2.05
2018-07-04T12:14:30.917Z,2.20
2018-07-04T12:17:01.097Z,2.00
2018-07-04T12:19:31.035Z,1.85
2018-07-04T12:22:01.046Z,2.40
2018-07-04T12:24:30.949Z,2.60
2018-07-04T12:27:01.014Z,2.90
2018-07-04T12:29:31.075Z,2.58
2018-07-04T12:32:01.232Z,2.65
2018-07-04T12:34:31.301Z,3.30
2018-07-04T12:37:01.208Z,3.20
2018-07-04T12:42:07.550Z,2.85
2018-07-04T12:44:37.753Z,3.22
2018-07-04T12:47:07.558Z,3.08
2018-07-04T12:49:37.682Z,2.90
2018-07-04T12:52:07.831Z,2.85
2018-07-04T12:54:43.090Z,2.30
2018-07-04T12:57:31.956Z,3.10
2018-07-04T13:00:26.706Z,3.12
2018-07-04T13:03:21.709Z,2.55
2018-07-04T13:06:16.616Z,2.75
2018-07-04T13:09:11.392Z,2.37
2018-07-04T13:12:00.248Z,2.90
2018-07-04T13:14:55.113Z,2.90
2018-07-04T13:17:49.800Z,2.60
2018-07-04T13:20:44.493Z,3.00
2018-07-04T13:23:39.261Z,3.40
2018-07-04T13:26:33.944Z,3.40
2018-07-04T13:29:28.509Z,2.08
2018-07-04T13:32:23.265Z,2.02
2018-07-04T13:35:18.169Z,2.27
2018-07-04T13:38:12.850Z,2.22
2018-07-04T13:41:07.548Z,2.80
2018-07-04T13:44:02.300Z,2.58
2018-07-04T13:46:50.907Z,2.35
2018-07-04T13:49:45.444Z,2.55
2018-07-04T13:52:34.247Z,2.40
2018-07-04T13:55:28.766Z,2.25
2018-07-04T13:58:23.365Z,2.60
2018-07-04T14:01:18.298Z,2.83
2018-07-04T14:04:13.190Z,2.22
2018-07-04T14:07:08.177Z,2.15
2018-07-04T14:10:03.056Z,2.42
2018-07-04T14:12:51.977Z,3.40
2018-07-04T14:15:46.485Z,2.67
2018-07-04T14:18:41.214Z,2.92
2018-07-04T14:21:35.803Z,2.80
2018-07-04T14:24:30.391Z,2.52
2018-07-04T14:27:27.276Z,2.92
2018-07-04T14:30:22.166Z,2.87
2018-07-04T14:33:16.723Z,3.08
2018-07-04T14:36:11.295Z,3.00
2018-07-04T14:39:05.997Z,3.50
2018-07-04T14:42:00.732Z,3.25
2018-07-04T14:44:55.546Z,3.17
2018-07-04T14:47:50.629Z,3.37
2018-07-04T14:50:45.548Z,3.25
2018-07-04T14:53:40.174Z,3.30
2018-07-04T14:56:34.945Z,3.47
2018-07-04T14:59:29.813Z,3.70
2018-07-04T15:02:24.538Z,3.50
2018-07-04T15:05:19.410Z,3.50
2018-07-04T15:08:08.069Z,3.75
2018-07-04T15:11:02.420Z,3.62
2018-07-04T15:13:57.267Z,4.28
2018-07-04T15:16:52.389Z,4.15
2018-07-04T15:19:47.106Z,4.47
2018-07-04T15:22:41.686Z,4.10
2018-07-04T15:25:30.560Z,4.33
2018-07-04T15:28:25.461Z,4.12
2018-07-04T15:31:14.112Z,4.67
2018-07-04T15:34:08.846Z,4.05
2018-07-04T15:37:04.129Z,4.12
2018-07-04T15:39:52.857Z,3.77
2018-07-04T15:42:47.452Z,4.30
2018-07-04T15:45:42.065Z,4.60
2018-07-04T15:48:36.708Z,5.12
2018-07-04T15:51:31.450Z,4.35
2018-07-04T15:54:26.152Z,4.85
2018-07-04T15:57:20.837Z,4.80
2018-07-04T16:00:09.518Z,4.60
2018-07-04T16:02:58.387Z,5.22
2018-07-04T16:05:53.105Z,5.60
2018-07-04T16:08:48.292Z,4.90
2018-07-04T16:11:43.159Z,5.17
2018-07-04T16:14:37.900Z,4.60
2018-07-04T16:17:32.719Z,4.65
2018-07-04T16:20:28.732Z,5.12
2018-07-04T16:23:23.821Z,5.10
2018-07-04T16:26:18.334Z,4.87
2018-07-04T16:29:12.980Z,4.40
2018-07-04T16:32:07.815Z,3.92
2018-07-04T16:35:03.698Z,3.98
2018-07-04T16:37:58.364Z,4.47
2018-07-04T16:40:53.239Z,4.65
2018-07-04T16:43:48.140Z,4.35
2018-07-04T16:46:36.768Z,4.37
2018-07-04T16:49:31.327Z,4.50
2018-07-04T16:52:25.971Z,4.75
2018-07-04T16:55:20.580Z,4.20
2018-07-04T16:58:15.718Z,4.40
2018-07-04T17:01:10.741Z,4.05
2018-07-04T17:04:05.305Z,4.45
2018-07-04T17:07:00.234Z,4.30
2018-07-04T17:09:55.128Z,3.77
2018-07-04T17:12:50.312Z,4.35
2018-07-04T17:15:45.258Z,4.30
2018-07-04T17:18:39.915Z,4.42
2018-07-04T17:21:34.557Z,4.55
2018-07-04T17:24:29.265Z,4.37
2018-07-04T17:27:18.158Z,4.70
2018-07-04T17:30:12.845Z,4.12
2018-07-04T17:33:07.327Z,3.85
2018-07-04T17:36:02.010Z,4.03
2018-07-04T17:38:56.799Z,3.67
2018-07-04T17:41:45.746Z,3.75
2018-07-04T17:44:40.382Z,3.72
2018-07-04T17:47:29.091Z,4.70
2018-07-04T17:50:23.713Z,4.42
2018-07-04T17:53:18.388Z,3.85
2018-07-04T17:56:13.243Z,3.85
2018-07-04T17:59:07.964Z,3.70
2018-07-04T18:02:02.875Z,4.00
2018-07-04T18:04:57.850Z,3.52
2018-07-04T18:07:52.712Z,4.05
2018-07-04T18:10:47.450Z,3.90
2018-07-04T18:13:42.512Z,3.70
2018-07-04T18:16:37.237Z,3.72
2018-07-04T18:19:31.964Z,4.25
2018-07-04T18:22:27.056Z,3.95
2018-07-04T18:25:16.375Z,3.75
2018-07-04T18:28:10.749Z,3.77
2018-07-04T18:30:59.372Z,3.80
2018-07-04T18:33:54.187Z,3.92
2018-07-04T18:36:49.066Z,3.83
2018-07-04T18:39:38.840Z,3.65
2018-07-04T18:42:33.415Z,4.35
2018-07-04T18:45:28.070Z,3.80
2018-07-04T18:48:22.780Z,3.85
2018-07-04T18:51:18.048Z,4.30
2018-07-04T18:54:12.987Z,4.50
2018-07-04T18:57:08.025Z,3.62
2018-07-04T18:59:56.965Z,3.58
2018-07-04T19:02:51.264Z,4.15
2018-07-04T19:05:45.981Z,4.00
2018-07-04T19:08:34.929Z,3.37
2018-07-04T19:11:29.538Z,3.90
2018-07-04T19:14:24.537Z,3.75
2018-07-04T19:17:18.965Z,3.43
2018-07-04T19:20:13.145Z,3.90
2018-07-04T19:23:07.665Z,3.20
2018-07-04T19:26:01.658Z,3.47
2018-07-04T19:28:56.508Z,4.42
2018-07-04T19:31:50.949Z,3.60
2018-07-04T19:34:45.192Z,3.55
2018-07-04T19:37:39.630Z,3.20
2018-07-04T19:40:34.617Z,3.83
2018-07-04T19:43:28.826Z,3.33
2018-07-04T19:46:23.390Z,4.57
2018-07-04T19:49:17.554Z,3.60
2018-07-04T19:52:11.526Z,3.80
2018-07-04T19:55:06.259Z,3.50
2018-07-04T19:58:00.459Z,3.77
2018-07-04T20:00:54.787Z,4.10
2018-07-04T20:03:49.098Z,3.50
2018-07-04T20:06:43.172Z,3.40
2018-07-04T20:09:38.186Z,3.90
2018-07-04T20:12:32.551Z,3.80
2018-07-04T20:15:26.842Z,3.17
2018-07-04T20:18:20.999Z,3.40
2018-07-04T20:21:15.120Z,3.20
2018-07-04T20:24:09.312Z,3.27
2018-07-04T20:27:03.567Z,3.40
2018-07-04T20:29:58.272Z,3.40
2018-07-04T20:32:52.506Z,3.33
2018-07-04T20:35:46.676Z,3.60
2018-07-04T20:38:40.895Z,3.37
2018-07-04T20:41:35.142Z,3.50
2018-07-04T20:44:23.454Z,3.37
2018-07-04T20:47:17.807Z,3.67
2018-07-04T20:50:12.250Z,3.43
2018-07-04T20:53:00.432Z,3.90
2018-07-04T20:55:54.805Z,3.57
2018-07-04T20:58:49.175Z,3.53
2018-07-04T21:01:43.104Z,3.83
2018-07-04T21:04:37.123Z,3.60
2018-07-04T21:07:31.099Z,3.47
2018-07-04T21:10:25.353Z,4.07
2018-07-04T21:13:19.325Z,3.87
2018-07-04T21:16:13.336Z,4.33
2018-07-04T21:19:01.467Z,3.47
2018-07-04T21:21:55.565Z,3.80
2018-07-04T21:24:49.844Z,3.77
2018-07-04T21:27:43.934Z,3.67
2018-07-04T21:30:38.316Z,3.77
2018-07-04T21:33:32.338Z,4.27
2018-07-04T21:36:26.380Z,5.17
2018-07-04T21:39:20.598Z,4.00
2018-07-04T21:42:14.795Z,3.33
2018-07-04T21:45:09.041Z,3.50
2018-07-04T21:48:03.390Z,3.87
2018-07-04T21:50:57.597Z,3.57
2018-07-04T21:53:51.550Z,4.20
2018-07-04T21:56:45.925Z,3.80
2018-07-04T21:59:40.044Z,3.73
2018-07-04T22:02:34.218Z,4.47
2018-07-04T22:05:28.511Z,4.23
2018-07-04T22:08:23.328Z,3.53
2018-07-04T22:11:17.522Z,3.73
2018-07-04T22:14:11.618Z,3.50
2018-07-04T22:17:05.970Z,3.60
2018-07-04T22:20:00.353Z,4.13
2018-07-04T22:22:54.555Z,4.50
2018-07-04T22:25:48.933Z,4.43
2018-07-04T22:28:43.730Z,4.20
2018-07-04T22:31:38.089Z,4.20
2018-07-04T22:34:31.993Z,4.23
2018-07-04T22:37:26.928Z,4.03
2018-07-04T22:40:21.214Z,4.07
2018-07-04T22:43:15.536Z,4.17
2018-07-04T22:46:09.939Z,4.10
2018-07-04T22:49:03.869Z,3.97
2018-07-04T22:51:59.331Z,4.00
2018-07-04T22:54:53.686Z,3.63
2018-07-04T22:57:48.157Z,3.50
2018-07-04T23:00:42.109Z,3.70
2018-07-04T23:03:36.139Z,4.20
2018-07-04T23:06:30.340Z,4.10
2018-07-04T23:09:24.401Z,4.20
2018-07-04T23:12:18.570Z,4.43
2018-07-04T23:15:12.593Z,4.80
2018-07-04T23:18:06.772Z,4.50
2018-07-04T23:21:00.995Z,3.90
2018-07-04T23:23:55.333Z,4.43
2018-07-04T23:26:49.245Z,4.37
2018-07-04T23:29:43.756Z,3.80
2018-07-04T23:32:37.985Z,3.00
2018-07-04T23:35:32.121Z,2.97
2018-07-04T23:38:26.297Z,2.40
2018-07-04T23:41:20.530Z,2.80
2018-07-04T23:44:14.749Z,2.80
2018-07-04T23:47:09.010Z,2.60
2018-07-04T23:50:03.086Z,2.20
2018-07-04T23:52:57.451Z,2.30
2018-07-04T23:55:51.704Z,2.33
2018-07-04T23:58:45.870Z,2.30
